»·PEaware :: N717TS KCOS-KEGE

N717TS :: KCOS-KEGE

FLIGHT INFORMATION

Flight Status: Arrived
Operator: Privately registered:
United States
More flights under this callsign
Pilot: Ty S. (2873)
Aircraft: MITSUBISHI MU-2 MARQUISE
(MU2)
More flights by this aircraft type
Origin: KCOS City Of Colorado Springs Mun
United States
Destination: KEGE Eagle Co Regl
United States
More flights between these airports :: More routes between these airports
Route: +COS6 BRK FQF RLG
File this flight plan on PilotEdge
Remarks:
Altitude:
(Current/Filed)
20,000ft
Speed:
(Current/Filed)
350kts
Departed: 30-Mar-20 06:07 PM
Arrived: 30-Mar-20 06:48 PM
Distance/Time
Traveled:
114nm/0:41
Distance/Time
To Go:
Arrived

Flight Plot

Page will automatically refresh every two minutes.

Flight plan parsing failed; only flown route is shown


Map Options




Map Legend


Flown Route
Filed Route
Departure Airport
Arrival Airport
Navaid (VOR, NDB)
Fix

Horizontal Profiles

Position Reports

Time Latitude Longitude Heading Altitude Ground
Speed
30-Mar-20 17:49 38.807834 -104.720076 60 6191ft 0kts
30-Mar-20 17:50 38.807834 -104.720076 60 6191ft 0kts
30-Mar-20 17:51 38.807834 -104.720076 60 6191ft 0kts
30-Mar-20 17:52 38.807834 -104.720076 59 6191ft 0kts
30-Mar-20 17:53 38.807834 -104.720076 60 6191ft 0kts
30-Mar-20 17:54 38.807834 -104.720076 60 6191ft 0kts
30-Mar-20 17:55 38.807834 -104.720076 60 6191ft 0kts
30-Mar-20 17:56 38.807834 -104.720076 60 6191ft 0kts
30-Mar-20 17:57 38.807834 -104.720076 60 6191ft 0kts
30-Mar-20 17:58 38.807507 -104.719712 171 6191ft 5kts
30-Mar-20 17:59 38.807225 -104.719683 174 6191ft 5kts
30-Mar-20 18:01 38.806216 -104.718266 89 6191ft 7kts
30-Mar-20 18:02 38.804516 -104.717334 181 6191ft 7kts
30-Mar-20 18:03 38.801759 -104.717347 180 6190ft 9kts
30-Mar-20 18:04 38.798543 -104.717349 179 6191ft 13kts
30-Mar-20 18:05 38.794690 -104.717346 179 6191ft 12kts
30-Mar-20 18:06 38.794125 -104.715956 17 6191ft 13kts
30-Mar-20 18:07 38.823449 -104.715013 6 7008ft 143kts
30-Mar-20 18:08 38.874222 -104.711522 0 8010ft 223kts
30-Mar-20 18:09 38.936297 -104.707546 2 9934ft 216kts
30-Mar-20 18:10 38.995374 -104.700812 1 12079ft 201kts
30-Mar-20 18:11 39.050348 -104.694607 1 14143ft 198kts
30-Mar-20 18:12 39.105001 -104.688386 1 16129ft 197kts
30-Mar-20 18:13 39.159613 -104.682137 0 18152ft 196kts
30-Mar-20 18:14 39.213763 -104.675936 0 20090ft 199kts
30-Mar-20 18:15 39.279611 -104.668450 1 20165ft 267kts
30-Mar-20 18:16 39.358986 -104.659297 1 20155ft 299kts
30-Mar-20 18:17 39.444091 -104.649480 1 20120ft 312kts
30-Mar-20 18:18 39.531129 -104.639420 1 20104ft 315kts
30-Mar-20 18:18 39.603639 -104.631018 1 20103ft 315kts
30-Mar-20 18:20 39.692010 -104.666436 301 20103ft 308kts
30-Mar-20 18:21 39.717442 -104.773566 285 20102ft 312kts
30-Mar-20 18:22 39.737164 -104.883783 285 20101ft 313kts
30-Mar-20 18:23 39.756654 -104.993736 285 20101ft 312kts
30-Mar-20 18:23 39.772779 -105.085234 284 20100ft 310kts
30-Mar-20 18:25 39.795095 -105.212706 284 20099ft 309kts
30-Mar-20 18:26 39.814094 -105.321872 284 20097ft 308kts
30-Mar-20 18:26 39.829853 -105.412911 284 20113ft 307kts
30-Mar-20 18:28 39.851637 -105.539501 284 20168ft 305kts
30-Mar-20 18:28 39.867117 -105.630007 284 20200ft 305kts
30-Mar-20 18:29 39.885624 -105.738789 284 20205ft 306kts
30-Mar-20 18:30 39.904001 -105.847479 284 20205ft 306kts
30-Mar-20 18:31 39.922231 -105.955975 284 20204ft 306kts
30-Mar-20 18:32 39.940374 -106.064577 284 20203ft 306kts
30-Mar-20 18:33 39.958119 -106.171947 284 19732ft 290kts
30-Mar-20 18:34 39.974291 -106.269304 284 18571ft 259kts
30-Mar-20 18:35 39.989343 -106.360763 284 17446ft 261kts
30-Mar-20 18:36 39.973406 -106.448892 218 16347ft 292kts
30-Mar-20 18:37 39.895419 -106.487732 202 15238ft 304kts
30-Mar-20 18:38 39.814439 -106.521784 201 14116ft 304kts
30-Mar-20 18:39 39.738080 -106.553740 202 13958ft 262kts
30-Mar-20 18:40 39.688341 -106.591899 261 13912ft 167kts
30-Mar-20 18:41 39.681783 -106.650041 266 12320ft 166kts
30-Mar-20 18:42 39.672523 -106.708879 257 10776ft 162kts
30-Mar-20 18:43 39.663952 -106.762376 262 9388ft 137kts
30-Mar-20 18:44 39.658486 -106.807486 258 8357ft 112kts
30-Mar-20 18:45 39.653732 -106.847516 258 7739ft 117kts
30-Mar-20 18:46 39.646155 -106.886551 256 6878ft 109kts
30-Mar-20 18:47 39.642759 -106.915746 246 6549ft 9kts
30-Mar-20 18:48 39.641851 -106.913779 83 6549ft 11kts
30-Mar-20 18:49 39.641287 -106.910937 121 6549ft 7kts
30-Mar-20 18:50 39.641215 -106.910754 115 6549ft 0kts
30-Mar-20 18:51 39.641215 -106.910754 115 6549ft 0kts
30-Mar-20 18:52 39.641215 -106.910754 115 6549ft 0kts

Navigation Log

Ident Type
Flight plan parsing failed, navigation log unavailable